Flight Track Log - Related Links

Times and Time Zones

All times are in EST time to prevent confusion due to time zone crossing. See the EGF5338 flight status page for this flight to view local times or setup timezone preferences in your user account.

Time Position Orientation Groundspeed Altitude Reporting Facility
EST Latitude Longitude Course Direction KTS MPH feet Rate Location/Type
Thu 02:42:00 PM 42.2118 -85.7800 262° West  Level Estimated
Thu 02:43:00 PM 42.2042 -85.8562 262° West  Level Estimated
Thu 02:44:00 PM 42.1966 -85.9323 262° West  Level Estimated
Thu 02:45:00 PM 42.1889 -86.0084 262° West  Level Estimated
Thu 02:46:00 PM 42.1811 -86.0844 262° West  Level Estimated
Thu 02:47:00 PM 42.1733 -86.1605 262° West  Level Estimated
Thu 02:48:00 PM 42.1654 -86.2365 262° West  Level Estimated
Thu 02:49:00 PM 42.1575 -86.3125 262° West  Level Estimated
Thu 02:50:00 PM 42.1495 -86.3885 262° West  Level Estimated
Thu 02:51:00 PM 42.1415 -86.4645 262° West  Level Estimated
Thu 02:52:00 PM 42.1334 -86.5404 262° West  Level Estimated
Thu 02:53:00 PM 42.1264 -86.6058 262° West  Level Estimated
Thu 02:54:00 PM 42.1194 -86.6712 262° West  Level Estimated
Thu 02:55:00 PM 42.1124 -86.7366 262° West  Level Estimated
Thu 02:56:00 PM 42.1053 -86.8019 262° West  Level Estimated
Thu 02:57:00 PM 42.0981 -86.8672 262° West  Level Estimated
Thu 02:58:00 PM 42.0910 -86.9326 262° West  Level Estimated
Thu 02:59:00 PM 42.0838 -86.9979 262° West  Level Estimated
Thu 03:00:00 PM 42.0767 -87.0614 262° West  Level Estimated
Thu 03:01:00 PM 42.0696 -87.1249 261° West  Level Estimated
Thu 03:02:00 PM 42.0625 -87.1884 261° West  Level Estimated
Thu 03:03:00 PM 42.0554 -87.2519 261° West  Level Estimated
Thu 03:04:00 PM 42.0482 -87.3153 261° West  Level Estimated
Thu 03:05:00 PM 42.0409 -87.3788 261° West  Level Estimated
Thu 03:06:00 PM 42.0337 -87.4422 261° West  Level Estimated
Thu 03:07:00 PM 42.0252 -87.5155 261° West  Level Estimated
Thu 03:08:00 PM 42.0168 -87.5889 261° West  Level Estimated
Thu 03:09:00 PM 42.0082 -87.6621 261° West  Level Estimated

Login

Don't have an account? Register now (free) for customized features, flight alerts, and more!